Time;durP1;ratioP1;P1;durP2;ratioP2;P2;SDS_P1;SDS_P2;PMS_P1;PMS_P2;Temp;Humidity;BMP_temperature;BMP_pressure;BME280_temperature;BME280_humidity;BME280_pressure;Samples;Min_cycle;Max_cycle;Signal;HPM_P1;HPM_P2
2023/11/19 00:02:00;;;;;;;4.18;3.80;;;;;;;;;;5044359;28;20308;-89
2023/11/19 00:04:30;;;;;;;4.47;4.07;;;;;;;;;;5029418;28;20280;-88
2023/11/19 00:07:03;;;;;;;4.80;4.20;;;;;;;;;;5046232;28;20204;-88
2023/11/19 00:09:32;;;;;;;5.53;3.83;;;;;;;;;;5030607;28;20272;-89
2023/11/19 00:12:01;;;;;;;7.07;3.22;;;;;;;;;;5027990;28;20283;-89
2023/11/19 00:14:30;;;;;;;3.35;3.15;;;;;;;;;;5046473;28;20275;-89
2023/11/19 00:16:58;;;;;;;3.00;2.80;;;;;;;;;;5064768;28;20283;-89
2023/11/19 00:19:28;;;;;;;5.22;3.40;;;;;;;;;;5064722;28;20675;-89
2023/11/19 00:21:59;;;;;;;5.03;3.22;;;;;;;;;;5047174;28;20241;-89
2023/11/19 00:24:31;;;;;;;4.70;3.33;;;;;;;;;;5048310;28;20269;-89
2023/11/19 00:27:00;;;;;;;5.05;4.65;;;;;;;;;;5066307;28;20193;-89
2023/11/19 00:29:28;;;;;;;3.45;3.25;;;;;;;;;;5049943;28;20260;-89
2023/11/19 00:31:56;;;;;;;3.65;3.45;;;;;;;;;;5066200;28;20264;-89
2023/11/19 00:34:24;;;;;;;3.15;2.95;;;;;;;;;;5050188;28;20271;-89
2023/11/19 00:36:55;;;;;;;3.33;3.03;;;;;;;;;;5049599;28;20200;-89
2023/11/19 00:39:23;;;;;;;3.10;2.95;;;;;;;;;;5038022;28;20260;-90
2023/11/19 00:41:51;;;;;;;3.33;3.13;;;;;;;;;;5019936;28;20272;-90
2023/11/19 00:44:21;;;;;;;2.70;2.60;;;;;;;;;;5045254;28;20315;-89
2023/11/19 00:46:50;;;;;;;3.40;3.20;;;;;;;;;;5056275;28;20280;-89
2023/11/19 00:49:18;;;;;;;3.45;3.25;;;;;;;;;;5030968;28;20253;-90
2023/11/19 00:51:46;;;;;;;4.40;3.15;;;;;;;;;;5031434;28;20264;-89
2023/11/19 00:54:17;;;;;;;3.45;3.00;;;;;;;;;;5020275;28;20201;-90
2023/11/19 00:56:45;;;;;;;3.13;2.92;;;;;;;;;;5041130;28;20281;-89
2023/11/19 00:59:14;;;;;;;3.10;2.90;;;;;;;;;;5048491;28;20260;-90
2023/11/19 01:01:43;;;;;;;2.97;2.78;;;;;;;;;;5031313;28;20200;-90
2023/11/19 01:04:11;;;;;;;6.07;2.53;;;;;;;;;;5030667;28;20295;-90
2023/11/19 01:06:40;;;;;;;2.88;2.65;;;;;;;;;;5046693;28;20192;-89
2023/11/19 01:09:09;;;;;;;2.90;2.70;;;;;;;;;;5049154;28;20262;-90
2023/11/19 01:11:39;;;;;;;3.10;2.90;;;;;;;;;;5032873;28;20253;-90
2023/11/19 01:14:08;;;;;;;2.97;2.88;;;;;;;;;;5066773;28;20242;-90
2023/11/19 01:16:37;;;;;;;3.22;3.03;;;;;;;;;;5066210;28;20256;-90
2023/11/19 01:19:05;;;;;;;3.38;3.08;;;;;;;;;;5033407;28;20236;-89
2023/11/19 01:21:33;;;;;;;3.00;2.90;;;;;;;;;;5031566;28;20177;-89
2023/11/19 01:24:06;;;;;;;3.90;3.60;;;;;;;;;;5065159;28;20216;-89
2023/11/19 01:26:33;;;;;;;3.00;2.80;;;;;;;;;;5029422;28;20279;-89
2023/11/19 01:29:04;;;;;;;3.38;3.17;;;;;;;;;;5031741;28;20261;-89
2023/11/19 01:31:33;;;;;;;3.10;2.90;;;;;;;;;;5032002;28;20200;-89
2023/11/19 01:34:02;;;;;;;3.15;2.95;;;;;;;;;;5024353;28;20256;-90
2023/11/19 01:36:30;;;;;;;3.75;3.55;;;;;;;;;;5048503;28;20660;-89
2023/11/19 01:38:59;;;;;;;4.10;3.80;;;;;;;;;;5051830;28;20232;-90
2023/11/19 01:41:27;;;;;;;3.33;3.13;;;;;;;;;;5053087;28;20228;-89
2023/11/19 01:43:56;;;;;;;3.25;3.05;;;;;;;;;;5049044;28;20312;-90
2023/11/19 01:46:26;;;;;;;3.65;3.38;;;;;;;;;;5059042;28;20244;-89
2023/11/19 01:48:55;;;;;;;2.75;2.55;;;;;;;;;;5048176;28;20244;-89
2023/11/19 01:51:24;;;;;;;3.50;3.30;;;;;;;;;;5033026;28;20274;-90
2023/11/19 01:53:53;;;;;;;3.60;3.40;;;;;;;;;;5033740;28;20366;-91
2023/11/19 01:56:21;;;;;;;3.85;3.55;;;;;;;;;;5033400;28;20637;-88
2023/11/19 01:58:55;;;;;;;3.58;3.38;;;;;;;;;;5049345;28;20244;-87
2023/11/19 02:01:23;;;;;;;3.85;3.55;;;;;;;;;;5034091;28;20204;-88
2023/11/19 02:03:54;;;;;;;3.35;3.15;;;;;;;;;;5030621;28;20311;-88
2023/11/19 02:06:22;;;;;;;3.47;3.25;;;;;;;;;;5047822;28;20200;-88
2023/11/19 02:08:51;;;;;;;2.88;2.67;;;;;;;;;;5034449;28;20286;-88
2023/11/19 02:11:20;;;;;;;3.05;2.85;;;;;;;;;;5031504;28;20540;-88
2023/11/19 02:13:48;;;;;;;3.88;3.58;;;;;;;;;;5031444;28;20212;-87
2023/11/19 02:16:17;;;;;;;2.95;2.78;;;;;;;;;;5049486;28;20184;-87
2023/11/19 02:18:45;;;;;;;3.55;3.35;;;;;;;;;;5034160;28;20252;-88
2023/11/19 02:21:17;;;;;;;3.42;3.13;;;;;;;;;;5032849;28;20268;-88
2023/11/19 02:23:45;;;;;;;3.38;3.10;;;;;;;;;;5064664;28;20292;-88
2023/11/19 02:26:16;;;;;;;3.70;3.50;;;;;;;;;;5049200;28;20291;-87
2023/11/19 02:28:47;;;;;;;3.70;3.40;;;;;;;;;;5047671;28;20264;-89
2023/11/19 02:31:20;;;;;;;2.90;2.70;;;;;;;;;;5041625;28;20184;-89
2023/11/19 02:33:49;;;;;;;3.05;2.85;;;;;;;;;;5056271;28;20224;-89
2023/11/19 02:36:18;;;;;;;4.15;3.25;;;;;;;;;;5050385;28;20224;-89
2023/11/19 02:38:46;;;;;;;3.95;3.65;;;;;;;;;;5033394;28;20762;-89
2023/11/19 02:41:15;;;;;;;3.80;3.60;;;;;;;;;;5049212;28;20224;-88
2023/11/19 02:43:44;;;;;;;4.88;3.83;;;;;;;;;;5046129;28;20315;-89
2023/11/19 02:46:13;;;;;;;6.78;3.58;;;;;;;;;;5033265;28;20184;-89
2023/11/19 02:48:43;;;;;;;4.35;3.95;;;;;;;;;;5029354;28;20248;-90
2023/11/19 02:51:11;;;;;;;3.83;3.50;;;;;;;;;;5023931;28;20257;-89
2023/11/19 02:53:40;;;;;;;4.90;4.60;;;;;;;;;;5028146;28;20279;-89
2023/11/19 02:56:15;;;;;;;3.92;3.72;;;;;;;;;;5064086;28;20288;-90
2023/11/19 02:58:46;;;;;;;4.35;4.05;;;;;;;;;;5028646;28;20275;-90
2023/11/19 03:01:23;;;;;;;4.22;3.92;;;;;;;;;;5048522;28;20287;-91
2023/11/19 03:03:54;;;;;;;5.15;4.75;;;;;;;;;;5033388;28;20346;-90
2023/11/19 03:06:25;;;;;;;4.38;4.15;;;;;;;;;;5024852;28;20284;-90
2023/11/19 03:08:58;;;;;;;4.88;4.47;;;;;;;;;;5064939;22;20251;-65
2023/11/19 03:11:26;;;;;;;4.45;4.15;;;;;;;;;;5051159;28;20231;-65
2023/11/19 03:13:54;;;;;;;6.05;4.22;;;;;;;;;;5050339;28;20193;-65
2023/11/19 03:16:24;;;;;;;4.95;4.53;;;;;;;;;;5032802;28;20203;-65
2023/11/19 03:18:52;;;;;;;5.18;4.60;;;;;;;;;;5035511;28;20536;-64
2023/11/19 03:21:20;;;;;;;5.22;4.82;;;;;;;;;;5049897;28;20683;-64
2023/11/19 03:23:50;;;;;;;5.63;5.20;;;;;;;;;;5050098;28;20224;-64
2023/11/19 03:26:18;;;;;;;5.22;4.82;;;;;;;;;;5049101;28;20211;-64
2023/11/19 03:28:47;;;;;;;5.28;4.78;;;;;;;;;;5049109;28;20247;-64
2023/11/19 03:31:15;;;;;;;5.68;5.18;;;;;;;;;;5050996;28;20222;-65
2023/11/19 03:33:45;;;;;;;5.53;5.03;;;;;;;;;;5050905;28;20197;-64
2023/11/19 03:36:13;;;;;;;5.20;4.70;;;;;;;;;;5050779;28;20211;-65
2023/11/19 03:38:42;;;;;;;5.47;5.07;;;;;;;;;;5049204;28;20200;-65
2023/11/19 03:41:13;;;;;;;6.47;5.88;;;;;;;;;;5051097;28;20241;-64
2023/11/19 03:43:42;;;;;;;5.90;5.40;;;;;;;;;;5049342;28;20220;-65
2023/11/19 03:46:17;;;;;;;5.97;5.45;;;;;;;;;;5041826;28;20220;-65
2023/11/19 03:48:47;;;;;;;5.60;5.20;;;;;;;;;;5034737;28;20192;-64
2023/11/19 03:51:16;;;;;;;5.37;4.87;;;;;;;;;;5050354;28;20663;-64
2023/11/19 03:53:44;;;;;;;4.80;4.40;;;;;;;;;;5045159;28;20996;-65
2023/11/19 03:56:12;;;;;;;7.30;5.30;;;;;;;;;;5050274;28;20227;-64
2023/11/19 03:58:41;;;;;;;5.78;5.00;;;;;;;;;;5050153;28;20219;-65
2023/11/19 04:01:13;;;;;;;5.25;4.75;;;;;;;;;;5050475;28;20196;-65
2023/11/19 04:03:41;;;;;;;5.15;4.75;;;;;;;;;;5046738;28;20215;-65
2023/11/19 04:06:11;;;;;;;7.18;5.55;;;;;;;;;;5049095;28;20200;-65
2023/11/19 04:08:39;;;;;;;6.43;5.90;;;;;;;;;;5049960;28;20725;-64
2023/11/19 04:11:08;;;;;;;6.90;6.30;;;;;;;;;;5068449;28;20268;-65
2023/11/19 04:13:36;;;;;;;6.32;5.75;;;;;;;;;;5037541;28;20557;-65
2023/11/19 04:16:05;;;;;;;5.95;5.45;;;;;;;;;;5074907;28;20210;-65
2023/11/19 04:18:33;;;;;;;6.55;5.95;;;;;;;;;;5074365;28;20735;-65
2023/11/19 04:21:02;;;;;;;6.30;5.80;;;;;;;;;;5073253;28;20196;-64
2023/11/19 04:23:31;;;;;;;6.07;5.30;;;;;;;;;;5055512;28;20207;-64
2023/11/19 04:26:00;;;;;;;5.93;5.38;;;;;;;;;;5073861;28;20204;-65
2023/11/19 04:28:29;;;;;;;5.80;5.30;;;;;;;;;;5069515;28;20206;-64
2023/11/19 04:30:58;;;;;;;6.03;5.57;;;;;;;;;;5074390;28;20204;-65
2023/11/19 04:33:27;;;;;;;6.30;4.80;;;;;;;;;;5073671;28;20559;-64
2023/11/19 04:35:55;;;;;;;5.32;4.80;;;;;;;;;;5057917;28;20204;-64
2023/11/19 04:38:23;;;;;;;5.68;5.15;;;;;;;;;;5064941;28;20196;-64
2023/11/19 04:40:53;;;;;;;5.78;5.35;;;;;;;;;;5054176;28;20200;-65
2023/11/19 04:43:21;;;;;;;4.88;4.47;;;;;;;;;;5067402;28;20215;-65
2023/11/19 04:45:49;;;;;;;6.00;5.28;;;;;;;;;;5064931;28;20678;-64
2023/11/19 04:48:17;;;;;;;5.72;5.18;;;;;;;;;;5070666;28;20200;-64
2023/11/19 04:50:46;;;;;;;5.00;4.45;;;;;;;;;;5074036;28;20208;-65
2023/11/19 04:53:15;;;;;;;5.45;4.28;;;;;;;;;;5072983;28;20230;-64
2023/11/19 04:55:43;;;;;;;4.20;3.90;;;;;;;;;;5062587;28;20234;-65
2023/11/19 04:58:13;;;;;;;4.72;4.32;;;;;;;;;;5071409;28;20200;-64
2023/11/19 05:00:41;;;;;;;4.05;3.75;;;;;;;;;;5072661;28;20192;-64
2023/11/19 05:03:09;;;;;;;5.53;4.28;;;;;;;;;;5070878;28;20253;-64
2023/11/19 05:05:38;;;;;;;4.30;4.00;;;;;;;;;;5074356;28;20219;-64
2023/11/19 05:08:06;;;;;;;4.28;4.07;;;;;;;;;;5072926;28;20571;-65
2023/11/19 05:10:34;;;;;;;6.13;3.55;;;;;;;;;;5073101;28;20231;-65
2023/11/19 05:13:02;;;;;;;5.07;4.10;;;;;;;;;;5069162;28;20203;-65
2023/11/19 05:15:33;;;;;;;2.90;2.80;;;;;;;;;;5068171;28;20659;-63
2023/11/19 05:18:02;;;;;;;2.83;2.70;;;;;;;;;;5073361;28;20206;-64
2023/11/19 05:20:30;;;;;;;3.00;2.67;;;;;;;;;;5073125;28;20265;-64
2023/11/19 05:23:00;;;;;;;3.72;2.75;;;;;;;;;;5072525;28;20238;-64
2023/11/19 05:25:28;;;;;;;3.28;2.70;;;;;;;;;;5072373;28;20224;-64
2023/11/19 05:27:56;;;;;;;4.93;3.30;;;;;;;;;;5071623;28;20232;-64
2023/11/19 05:30:24;;;;;;;5.28;2.22;;;;;;;;;;5065744;28;20196;-64
2023/11/19 05:32:54;;;;;;;3.15;2.85;;;;;;;;;;5063184;28;20196;-65
2023/11/19 05:35:22;;;;;;;2.25;2.15;;;;;;;;;;5070104;28;20198;-64
2023/11/19 05:37:50;;;;;;;2.40;2.30;;;;;;;;;;5066653;28;20200;-64
2023/11/19 05:40:20;;;;;;;2.47;2.25;;;;;;;;;;5055289;28;20213;-64
2023/11/19 05:42:48;;;;;;;2.43;1.63;;;;;;;;;;5062664;28;20210;-65
2023/11/19 05:45:16;;;;;;;2.40;2.20;;;;;;;;;;5071079;28;20677;-64
2023/11/19 05:47:45;;;;;;;3.00;2.50;;;;;;;;;;5072028;28;20651;-64
2023/11/19 05:50:14;;;;;;;9.52;2.70;;;;;;;;;;5071580;28;20626;-65
2023/11/19 05:52:43;;;;;;;6.20;2.45;;;;;;;;;;5072766;28;20192;-64
2023/11/19 05:55:11;;;;;;;3.75;2.33;;;;;;;;;;5054217;28;20207;-64
2023/11/19 05:57:39;;;;;;;2.08;1.98;;;;;;;;;;5072091;28;20200;-65
2023/11/19 06:00:10;;;;;;;3.37;2.20;;;;;;;;;;5071216;28;20202;-65
2023/11/19 06:02:41;;;;;;;6.43;2.50;;;;;;;;;;5070594;28;20585;-64
2023/11/19 06:05:09;;;;;;;2.57;2.30;;;;;;;;;;5071202;28;21289;-64
2023/11/19 06:07:41;;;;;;;1.87;1.77;;;;;;;;;;5072184;28;20603;-64
2023/11/19 06:10:09;;;;;;;2.15;2.05;;;;;;;;;;5071817;28;20648;-64
2023/11/19 06:12:40;;;;;;;2.10;1.90;;;;;;;;;;5070624;28;20196;-64
2023/11/19 06:15:09;;;;;;;2.10;1.77;;;;;;;;;;5072399;28;20188;-64
2023/11/19 06:17:38;;;;;;;2.83;2.50;;;;;;;;;;5072297;28;20614;-64
2023/11/19 06:20:07;;;;;;;1.87;1.77;;;;;;;;;;5071605;28;20204;-64
2023/11/19 06:22:36;;;;;;;6.97;1.80;;;;;;;;;;5071773;28;20617;-65
2023/11/19 06:25:07;;;;;;;2.05;1.95;;;;;;;;;;5072320;28;20649;-62
2023/11/19 06:27:35;;;;;;;2.75;1.70;;;;;;;;;;5072456;28;20198;-65
2023/11/19 06:30:03;;;;;;;1.67;1.30;;;;;;;;;;5060651;28;20205;-64
2023/11/19 06:32:32;;;;;;;2.25;1.63;;;;;;;;;;5040102;28;20622;-64
2023/11/19 06:35:00;;;;;;;1.52;1.42;;;;;;;;;;5059297;28;20208;-64
2023/11/19 06:37:31;;;;;;;1.75;1.65;;;;;;;;;;5071194;28;20210;-64
2023/11/19 06:40:00;;;;;;;3.07;1.80;;;;;;;;;;5071470;28;20184;-65
2023/11/19 06:42:30;;;;;;;4.70;1.60;;;;;;;;;;5072093;28;20610;-64
2023/11/19 06:44:58;;;;;;;1.60;1.50;;;;;;;;;;5056314;28;20225;-65
2023/11/19 06:47:27;;;;;;;1.40;1.23;;;;;;;;;;5050811;28;20603;-65
2023/11/19 06:49:56;;;;;;;2.70;1.40;;;;;;;;;;5070874;28;20626;-65
2023/11/19 06:52:24;;;;;;;1.43;1.33;;;;;;;;;;5071992;28;20585;-64
2023/11/19 06:54:53;;;;;;;4.72;1.50;;;;;;;;;;5071260;28;20643;-65
2023/11/19 06:57:21;;;;;;;1.50;1.40;;;;;;;;;;5071470;28;20716;-65
2023/11/19 06:59:51;;;;;;;1.30;1.20;;;;;;;;;;5053333;28;20619;-65
2023/11/19 07:02:19;;;;;;;2.70;1.80;;;;;;;;;;5069687;28;20618;-64
2023/11/19 07:04:47;;;;;;;2.60;1.30;;;;;;;;;;5069291;28;20625;-64
2023/11/19 07:07:16;;;;;;;1.50;1.20;;;;;;;;;;5068920;28;20648;-65
2023/11/19 07:09:44;;;;;;;5.70;1.53;;;;;;;;;;5068346;28;21008;-64
2023/11/19 07:12:14;;;;;;;1.60;1.50;;;;;;;;;;5071407;28;20944;-62
2023/11/19 07:14:42;;;;;;;1.90;1.67;;;;;;;;;;5048110;28;20617;-64
2023/11/19 07:17:12;;;;;;;2.03;1.90;;;;;;;;;;5033871;28;20607;-64
2023/11/19 07:19:40;;;;;;;1.80;1.70;;;;;;;;;;5032831;28;21034;-64
2023/11/19 07:22:08;;;;;;;1.70;1.60;;;;;;;;;;5063561;28;20622;-64
2023/11/19 07:24:36;;;;;;;1.50;1.40;;;;;;;;;;5070765;28;20961;-65
2023/11/19 07:27:05;;;;;;;1.60;1.50;;;;;;;;;;5071824;28;21257;-65
2023/11/19 07:29:33;;;;;;;2.40;2.20;;;;;;;;;;5071025;28;20597;-65
2023/11/19 07:32:01;;;;;;;10.27;7.22;;;;;;;;;;5070822;28;20676;-65
2023/11/19 07:34:31;;;;;;;11.10;9.90;;;;;;;;;;5057875;28;20200;-65
2023/11/19 07:37:02;;;;;;;3.45;2.75;;;;;;;;;;5071237;28;20618;-64
2023/11/19 07:39:30;;;;;;;2.38;2.10;;;;;;;;;;5070233;28;20214;-64
2023/11/19 07:41:58;;;;;;;1.60;1.50;;;;;;;;;;5053133;28;20655;-64
2023/11/19 07:44:27;;;;;;;1.80;1.70;;;;;;;;;;5058723;28;20706;-64
2023/11/19 07:46:55;;;;;;;1.88;1.77;;;;;;;;;;5067404;28;21003;-64
2023/11/19 07:49:23;;;;;;;3.77;1.77;;;;;;;;;;5070888;28;20253;-65
2023/11/19 07:51:53;;;;;;;1.90;1.80;;;;;;;;;;5073096;28;20626;-64
2023/11/19 07:54:22;;;;;;;1.80;1.70;;;;;;;;;;5067909;28;20624;-65
2023/11/19 07:56:50;;;;;;;1.30;1.20;;;;;;;;;;5074811;28;21058;-65
2023/11/19 07:59:18;;;;;;;2.40;2.20;;;;;;;;;;5056470;28;20630;-63
2023/11/19 08:01:47;;;;;;;6.00;1.80;;;;;;;;;;5063998;28;20624;-63
2023/11/19 08:04:15;;;;;;;1.53;1.43;;;;;;;;;;5077084;28;20599;-65
2023/11/19 08:06:45;;;;;;;1.43;1.33;;;;;;;;;;5095368;28;20636;-65
2023/11/19 08:09:15;;;;;;;1.07;1.07;;;;;;;;;;5095859;28;20680;-66
2023/11/19 08:11:43;;;;;;;4.60;1.90;;;;;;;;;;5084035;28;20706;-63
2023/11/19 08:14:12;;;;;;;2.57;1.90;;;;;;;;;;5075766;28;20603;-63
2023/11/19 08:16:41;;;;;;;2.73;1.77;;;;;;;;;;5064339;28;20623;-63
2023/11/19 08:19:09;;;;;;;1.90;1.70;;;;;;;;;;5053777;28;20994;-63
2023/11/19 08:21:37;;;;;;;1.40;1.30;;;;;;;;;;5077128;28;20604;-63
2023/11/19 08:24:06;;;;;;;2.83;1.50;;;;;;;;;;5076824;28;20622;-63
2023/11/19 08:26:35;;;;;;;2.13;1.70;;;;;;;;;;5077607;28;20662;-65
2023/11/19 08:29:04;;;;;;;1.53;1.17;;;;;;;;;;5058096;28;20604;-63
2023/11/19 08:31:32;;;;;;;4.70;3.20;;;;;;;;;;5074875;28;20618;-64
2023/11/19 08:34:00;;;;;;;2.13;1.83;;;;;;;;;;5073327;28;20621;-63
2023/11/19 08:36:28;;;;;;;1.80;1.70;;;;;;;;;;5069537;28;20662;-63
2023/11/19 08:38:57;;;;;;;3.00;1.20;;;;;;;;;;5069685;28;20630;-63
2023/11/19 08:41:25;;;;;;;1.40;1.30;;;;;;;;;;5074392;28;20621;-63
2023/11/19 08:43:54;;;;;;;5.60;1.20;;;;;;;;;;5054820;28;20642;-63
2023/11/19 08:46:23;;;;;;;1.63;1.53;;;;;;;;;;5061386;28;20726;-63
2023/11/19 08:48:51;;;;;;;1.40;1.30;;;;;;;;;;5073788;28;20629;-63
2023/11/19 08:51:19;;;;;;;2.43;1.80;;;;;;;;;;5076525;28;21430;-62
2023/11/19 08:53:47;;;;;;;3.00;1.30;;;;;;;;;;5075894;28;20602;-63
2023/11/19 08:56:16;;;;;;;1.30;1.20;;;;;;;;;;5074875;28;21296;-63
2023/11/19 08:58:44;;;;;;;1.30;1.00;;;;;;;;;;5056884;28;20667;-63
2023/11/19 09:01:14;;;;;;;2.83;1.40;;;;;;;;;;5055887;28;20626;-62
2023/11/19 09:03:42;;;;;;;1.43;1.33;;;;;;;;;;5072872;28;20977;-62
2023/11/19 09:06:10;;;;;;;3.97;1.50;;;;;;;;;;5056291;28;20666;-64
2023/11/19 09:08:38;;;;;;;1.57;1.47;;;;;;;;;;5078609;28;20638;-63
2023/11/19 09:11:08;;;;;;;4.60;1.70;;;;;;;;;;5073193;28;20679;-64
2023/11/19 09:13:37;;;;;;;1.57;1.47;;;;;;;;;;5075293;28;20642;-63
2023/11/19 09:16:05;;;;;;;1.27;1.17;;;;;;;;;;5072814;28;20621;-62
2023/11/19 09:18:35;;;;;;;1.40;1.10;;;;;;;;;;5079623;28;20715;-62
2023/11/19 09:21:03;;;;;;;3.33;1.07;;;;;;;;;;5074586;28;20640;-63
2023/11/19 09:23:36;;;;;;;1.10;1.00;;;;;;;;;;5074915;28;20626;-62
2023/11/19 09:26:05;;;;;;;2.43;1.13;;;;;;;;;;5057261;28;20603;-62
2023/11/19 09:28:33;;;;;;;1.80;1.70;;;;;;;;;;5076133;28;20602;-63
2023/11/19 09:31:04;;;;;;;1.57;1.00;;;;;;;;;;5077197;28;20638;-62
2023/11/19 09:33:34;;;;;;;1.47;1.10;;;;;;;;;;5075256;28;20618;-63
2023/11/19 09:36:04;;;;;;;1.03;0.93;;;;;;;;;;5080316;28;20619;-63
2023/11/19 09:38:32;;;;;;;1.13;1.10;;;;;;;;;;5072911;28;20631;-63
2023/11/19 09:41:03;;;;;;;4.10;1.00;;;;;;;;;;5053025;28;20677;-63
2023/11/19 09:43:31;;;;;;;6.63;1.37;;;;;;;;;;5073444;28;20641;-62
2023/11/19 09:46:05;;;;;;;3.60;1.67;;;;;;;;;;5066776;28;21208;-63
2023/11/19 09:48:34;;;;;;;6.07;1.40;;;;;;;;;;5066637;28;20609;-63
2023/11/19 09:51:03;;;;;;;1.23;1.13;;;;;;;;;;5067285;28;20627;-64
2023/11/19 09:53:32;;;;;;;4.50;2.73;;;;;;;;;;5069606;28;20638;-62
2023/11/19 09:56:02;;;;;;;1.90;1.80;;;;;;;;;;5071145;28;21213;-63
2023/11/19 09:58:31;;;;;;;1.30;1.20;;;;;;;;;;5074467;28;20602;-62
2023/11/19 10:00:59;;;;;;;16.53;9.17;;;;;;;;;;5066715;28;20626;-63
2023/11/19 10:03:28;;;;;;;3.87;1.60;;;;;;;;;;5067589;28;20744;-62
2023/11/19 10:05:56;;;;;;;1.50;0.97;;;;;;;;;;5071811;28;21244;-63
2023/11/19 10:08:26;;;;;;;2.93;1.50;;;;;;;;;;5075209;28;20650;-62
2023/11/19 10:10:54;;;;;;;1.23;0.93;;;;;;;;;;5072465;28;21137;-62
2023/11/19 10:13:27;;;;;;;1.33;1.23;;;;;;;;;;5068313;28;20622;-62
2023/11/19 10:15:57;;;;;;;1.13;0.90;;;;;;;;;;5072843;28;20595;-63
2023/11/19 10:18:28;;;;;;;1.10;1.00;;;;;;;;;;5074145;28;21209;-64
2023/11/19 10:20:56;;;;;;;1.73;1.50;;;;;;;;;;5072813;28;21498;-65
2023/11/19 10:23:24;;;;;;;2.20;1.40;;;;;;;;;;5073923;28;20707;-63
2023/11/19 10:25:56;;;;;;;16.50;7.70;;;;;;;;;;5071576;28;20664;-64
2023/11/19 10:28:24;;;;;;;5.80;5.30;;;;;;;;;;5070488;28;20995;-64
2023/11/19 10:30:57;;;;;;;2.20;2.00;;;;;;;;;;5070271;28;20618;-63
2023/11/19 10:33:32;;;;;;;1.90;1.80;;;;;;;;;;5071275;28;20609;-62
2023/11/19 10:36:00;;;;;;;1.67;1.57;;;;;;;;;;5073227;28;20692;-62
2023/11/19 10:38:28;;;;;;;3.30;2.30;;;;;;;;;;5072952;28;20626;-63
2023/11/19 10:40:58;;;;;;;0.93;0.90;;;;;;;;;;5072185;28;20622;-63
2023/11/19 10:43:27;;;;;;;3.03;1.33;;;;;;;;;;5071358;28;20722;-62
2023/11/19 10:45:55;;;;;;;2.40;1.50;;;;;;;;;;5074832;28;20663;-62
2023/11/19 10:48:25;;;;;;;3.40;2.27;;;;;;;;;;5073200;28;20672;-65
2023/11/19 10:50:56;;;;;;;3.27;2.87;;;;;;;;;;5060860;28;20680;-62
2023/11/19 10:53:25;;;;;;;3.97;2.00;;;;;;;;;;5081081;28;20688;-63
2023/11/19 10:55:55;;;;;;;5.43;1.73;;;;;;;;;;5070494;28;21239;-63
2023/11/19 10:58:26;;;;;;;3.80;3.50;;;;;;;;;;5068342;28;20629;-62
2023/11/19 11:00:57;;;;;;;3.30;3.10;;;;;;;;;;5062341;28;20640;-63
2023/11/19 11:03:27;;;;;;;3.73;3.47;;;;;;;;;;5066525;28;20663;-62
2023/11/19 11:05:55;;;;;;;5.97;5.50;;;;;;;;;;5071733;28;20626;-62
2023/11/19 11:08:23;;;;;;;2.80;2.70;;;;;;;;;;5071984;28;20645;-63
2023/11/19 11:10:54;;;;;;;3.13;2.93;;;;;;;;;;5053243;28;20662;-62
2023/11/19 11:13:25;;;;;;;6.40;6.00;;;;;;;;;;5054495;28;20575;-62
2023/11/19 11:15:54;;;;;;;2.80;2.70;;;;;;;;;;5053135;28;20595;-62
2023/11/19 11:18:23;;;;;;;3.03;2.27;;;;;;;;;;5035582;28;20616;-62
2023/11/19 11:20:52;;;;;;;3.23;2.00;;;;;;;;;;5052895;28;20641;-62
2023/11/19 11:23:38;;;;;;;2.47;2.37;;;;;;;;;;5047384;28;20642;-63
2023/11/19 11:26:23;;;;;;;2.77;2.50;;;;;;;;;;5035280;28;20716;-62
2023/11/19 11:28:58;;;;;;;4.20;2.40;;;;;;;;;;5053577;28;20708;-62
2023/11/19 11:31:31;;;;;;;2.67;2.43;;;;;;;;;;5053022;28;21930;-62
2023/11/19 11:34:22;;;;;;;3.17;2.90;;;;;;;;;;5040393;28;21187;-62
2023/11/19 11:36:55;;;;;;;2.73;2.60;;;;;;;;;;5033885;28;20682;-62
2023/11/19 11:39:24;;;;;;;11.00;3.37;;;;;;;;;;5040033;28;20706;-62
2023/11/19 11:42:08;;;;;;;2.10;2.00;;;;;;;;;;5053637;28;21224;-63
2023/11/19 11:44:51;;;;;;;3.77;3.10;;;;;;;;;;5038300;28;20771;-62
2023/11/19 11:47:20;;;;;;;4.20;1.93;;;;;;;;;;5032006;28;20671;-62
2023/11/19 11:49:48;;;;;;;5.10;2.80;;;;;;;;;;5024607;28;20619;-61
2023/11/19 11:52:16;;;;;;;4.40;2.77;;;;;;;;;;5052446;28;20630;-63
2023/11/19 11:54:44;;;;;;;3.63;3.33;;;;;;;;;;5052485;28;20681;-62
2023/11/19 11:57:13;;;;;;;4.47;4.17;;;;;;;;;;5050822;28;20623;-62
2023/11/19 11:59:48;;;;;;;5.50;5.10;;;;;;;;;;5032594;28;20615;-65
2023/11/19 12:02:17;;;;;;;5.43;5.23;;;;;;;;;;5032385;28;20600;-66
2023/11/19 12:04:50;;;;;;;6.27;5.87;;;;;;;;;;5039556;28;20618;-63
2023/11/19 12:07:19;;;;;;;6.60;6.20;;;;;;;;;;5052604;28;20587;-64
2023/11/19 12:09:53;;;;;;;7.20;6.80;;;;;;;;;;5063055;28;20630;-62
2023/11/19 12:12:22;;;;;;;7.47;6.87;;;;;;;;;;5072685;28;20627;-64
2023/11/19 12:15:07;;;;;;;8.17;7.43;;;;;;;;;;5073340;28;20606;-63
2023/11/19 12:17:45;;;;;;;7.50;7.20;;;;;;;;;;5069775;28;20616;-63
2023/11/19 12:20:16;;;;;;;7.60;7.30;;;;;;;;;;5072723;28;20597;-63
2023/11/19 12:22:45;;;;;;;9.10;8.70;;;;;;;;;;5053791;28;20644;-63
2023/11/19 12:25:13;;;;;;;9.23;8.87;;;;;;;;;;5052864;28;20617;-63
2023/11/19 12:27:42;;;;;;;9.47;8.93;;;;;;;;;;5052205;28;21250;-64
2023/11/19 12:30:11;;;;;;;9.03;8.57;;;;;;;;;;5052754;28;20678;-63
2023/11/19 12:32:40;;;;;;;9.50;9.00;;;;;;;;;;5052766;28;20640;-63
2023/11/19 12:35:11;;;;;;;9.93;8.67;;;;;;;;;;5063761;28;20622;-63
2023/11/19 12:37:44;;;;;;;8.43;8.13;;;;;;;;;;5058826;28;20607;-64
2023/11/19 12:40:14;;;;;;;8.60;8.20;;;;;;;;;;5056092;28;20706;-62
2023/11/19 12:42:42;;;;;;;8.67;8.17;;;;;;;;;;5056013;28;20619;-65
2023/11/19 12:45:11;;;;;;;9.07;8.60;;;;;;;;;;5055664;28;20716;-63
2023/11/19 12:47:41;;;;;;;8.83;8.40;;;;;;;;;;5056653;28;20629;-63
2023/11/19 12:50:10;;;;;;;8.67;8.23;;;;;;;;;;5076028;28;20610;-63
2023/11/19 12:52:38;;;;;;;8.20;7.80;;;;;;;;;;5073453;28;20630;-64
2023/11/19 12:55:25;;;;;;;8.60;8.30;;;;;;;;;;5075610;28;20624;-64
2023/11/19 12:57:55;;;;;;;8.70;8.27;;;;;;;;;;5071417;28;20599;-62
2023/11/19 13:00:24;;;;;;;8.90;8.50;;;;;;;;;;5055725;28;20619;-64
2023/11/19 13:02:53;;;;;;;9.33;8.83;;;;;;;;;;5054133;28;20964;-63
2023/11/19 13:05:23;;;;;;;9.60;9.10;;;;;;;;;;5053015;28;20987;-63
2023/11/19 13:07:51;;;;;;;9.20;8.90;;;;;;;;;;5057906;28;20631;-64
2023/11/19 13:10:19;;;;;;;9.80;9.20;;;;;;;;;;5056033;28;20657;-63
2023/11/19 13:13:02;;;;;;;12.10;11.60;;;;;;;;;;5055255;28;20615;-62
2023/11/19 13:15:30;;;;;;;11.20;10.57;;;;;;;;;;5055321;28;21233;-63
2023/11/19 13:17:59;;;;;;;10.30;9.50;;;;;;;;;;5074435;28;20626;-62
2023/11/19 13:20:27;;;;;;;9.93;9.53;;;;;;;;;;5088973;28;20674;-66
2023/11/19 13:22:56;;;;;;;8.70;8.40;;;;;;;;;;5096077;28;20625;-66
2023/11/19 13:25:24;;;;;;;9.00;8.60;;;;;;;;;;5093491;28;20645;-65
2023/11/19 13:27:53;;;;;;;9.70;8.90;;;;;;;;;;5076338;28;20631;-65
2023/11/19 13:30:23;;;;;;;7.00;6.60;;;;;;;;;;5074986;28;20645;-65
2023/11/19 13:32:51;;;;;;;8.37;7.97;;;;;;;;;;5074852;28;20625;-65
2023/11/19 13:35:20;;;;;;;6.93;6.43;;;;;;;;;;5074520;28;20639;-64
2023/11/19 13:37:48;;;;;;;8.50;7.90;;;;;;;;;;5074863;28;20639;-65
2023/11/19 13:40:17;;;;;;;10.10;7.83;;;;;;;;;;5074017;28;20639;-64
2023/11/19 13:42:45;;;;;;;6.40;6.10;;;;;;;;;;5074690;28;20626;-64
2023/11/19 13:45:14;;;;;;;5.93;5.70;;;;;;;;;;5092814;28;20687;-64
2023/11/19 13:47:44;;;;;;;6.23;6.03;;;;;;;;;;5074912;28;20654;-64
2023/11/19 13:50:14;;;;;;;7.00;6.33;;;;;;;;;;5077156;28;20673;-65
2023/11/19 13:52:44;;;;;;;8.43;7.83;;;;;;;;;;5084148;28;20645;-64
2023/11/19 13:55:12;;;;;;;7.53;7.23;;;;;;;;;;5090526;28;20637;-65
2023/11/19 13:57:41;;;;;;;9.03;8.63;;;;;;;;;;5089420;28;20646;-64
2023/11/19 14:00:12;;;;;;;9.57;9.03;;;;;;;;;;5086784;28;20636;-65
2023/11/19 14:02:40;;;;;;;10.57;10.07;;;;;;;;;;5086607;28;20630;-64
2023/11/19 14:05:11;;;;;;;10.73;10.10;;;;;;;;;;5091808;28;20658;-64
2023/11/19 14:07:43;;;;;;;10.53;9.93;;;;;;;;;;5093742;28;20618;-64
2023/11/19 14:10:12;;;;;;;10.10;9.50;;;;;;;;;;5088504;28;20694;-62
2023/11/19 14:12:40;;;;;;;9.50;9.00;;;;;;;;;;5073809;28;20663;-62
2023/11/19 14:15:12;;;;;;;9.30;8.80;;;;;;;;;;5065099;28;20969;-62
2023/11/19 14:17:40;;;;;;;8.37;7.97;;;;;;;;;;5069092;28;20610;-62
2023/11/19 14:20:12;;;;;;;7.80;7.60;;;;;;;;;;5073380;28;20614;-63
2023/11/19 14:22:42;;;;;;;7.60;7.40;;;;;;;;;;5073414;28;21229;-61
2023/11/19 14:25:11;;;;;;;7.90;7.43;;;;;;;;;;5068519;28;20640;-62
2023/11/19 14:27:39;;;;;;;8.47;7.97;;;;;;;;;;5072679;28;20630;-62
2023/11/19 14:30:08;;;;;;;6.80;6.40;;;;;;;;;;5072992;28;21034;-63
2023/11/19 14:32:37;;;;;;;6.40;6.00;;;;;;;;;;5073506;28;20622;-62
2023/11/19 14:35:05;;;;;;;8.10;7.70;;;;;;;;;;5069310;28;20634;-64
2023/11/19 14:37:34;;;;;;;7.83;7.27;;;;;;;;;;5070842;28;20622;-61
2023/11/19 14:40:05;;;;;;;8.63;8.13;;;;;;;;;;5073654;28;20661;-62
2023/11/19 14:42:33;;;;;;;6.93;6.67;;;;;;;;;;5073407;28;20602;-62
2023/11/19 14:45:01;;;;;;;7.73;7.23;;;;;;;;;;5067332;28;21125;-61
2023/11/19 14:47:30;;;;;;;6.27;5.97;;;;;;;;;;5065968;28;20644;-62
2023/11/19 14:49:59;;;;;;;6.60;6.30;;;;;;;;;;5072563;28;20664;-62
2023/11/19 14:52:27;;;;;;;7.43;7.03;;;;;;;;;;5071144;28;20630;-62
2023/11/19 14:54:56;;;;;;;6.70;6.37;;;;;;;;;;5068135;28;20605;-62
2023/11/19 14:57:26;;;;;;;5.77;5.33;;;;;;;;;;5069871;28;20618;-62